Arnesen, Minnesota
Current Conditions -  °F | °C
As of 8:33 PM on Friday 28 Nov 2014 (Local Time) from KRRT Reporting Station
Light Snow Light Snow  
Wind Chill:   Ceiling: 1700
Heat Index: 16°   Visibility: 1.7mi
Dew Point: 12°   Wind: 8mph
Humidity: 86%   Direction: 110°ESE
Pressure: 29.69"   Gusts: NA
Location:  48.6345°N, 95.1786°W
Report Text: KRRT 290233Z AUTO 11007KT 1 3/4SM -SN SCT005 BKN017 OVC040 M09/M11 A2969 RMK AO2
Loading
Personal Weather Stations






























Interactive Weather Map New forecast layout! Learn more

10-Day Weather Forecast

Advertisements
Track Severe Weather on mobile